sensor_id;sensor_type;location;lat;lon;timestamp;P1;durP1;ratioP1;P2;durP2;ratioP2
6497;SDS011;3282;48.358;10.958;2022-09-09T00:01:08;6.50;;;2.65;;
6497;SDS011;3282;48.358;10.958;2022-09-09T00:03:46;5.20;;;2.90;;
6497;SDS011;3282;48.358;10.958;2022-09-09T00:09:12;5.95;;;2.85;;
6497;SDS011;3282;48.358;10.958;2022-09-09T00:11:45;9.57;;;2.78;;
6497;SDS011;3282;48.358;10.958;2022-09-09T00:16:54;6.10;;;3.28;;
6497;SDS011;3282;48.358;10.958;2022-09-09T00:19:24;7.18;;;2.88;;
6497;SDS011;3282;48.358;10.958;2022-09-09T00:24:44;5.40;;;3.17;;
6497;SDS011;3282;48.358;10.958;2022-09-09T00:32:45;5.70;;;3.10;;
6497;SDS011;3282;48.358;10.958;2022-09-09T00:37:45;5.50;;;2.90;;
6497;SDS011;3282;48.358;10.958;2022-09-09T00:40:22;5.60;;;2.80;;
6497;SDS011;3282;48.358;10.958;2022-09-09T00:42:54;5.38;;;2.83;;
6497;SDS011;3282;48.358;10.958;2022-09-09T00:48:18;5.28;;;3.00;;
6497;SDS011;3282;48.358;10.958;2022-09-09T00:56:25;5.35;;;3.10;;
6497;SDS011;3282;48.358;10.958;2022-09-09T00:59:03;6.88;;;3.42;;
6497;SDS011;3282;48.358;10.958;2022-09-09T01:01:38;5.40;;;3.05;;
6497;SDS011;3282;48.358;10.958;2022-09-09T01:04:08;6.32;;;3.10;;
6497;SDS011;3282;48.358;10.958;2022-09-09T01:06:46;7.10;;;3.08;;
6497;SDS011;3282;48.358;10.958;2022-09-09T01:17:17;6.15;;;2.53;;
6497;SDS011;3282;48.358;10.958;2022-09-09T01:28:08;6.72;;;3.08;;
6497;SDS011;3282;48.358;10.958;2022-09-09T01:30:40;6.07;;;3.40;;
6497;SDS011;3282;48.358;10.958;2022-09-09T01:33:13;6.15;;;3.00;;
6497;SDS011;3282;48.358;10.958;2022-09-09T01:38:23;8.32;;;3.20;;
6497;SDS011;3282;48.358;10.958;2022-09-09T01:40:52;5.15;;;3.10;;
6497;SDS011;3282;48.358;10.958;2022-09-09T01:43:24;5.72;;;2.95;;
6497;SDS011;3282;48.358;10.958;2022-09-09T01:45:52;7.32;;;3.53;;
6497;SDS011;3282;48.358;10.958;2022-09-09T01:48:21;6.28;;;3.20;;
6497;SDS011;3282;48.358;10.958;2022-09-09T01:51:01;5.93;;;3.10;;
6497;SDS011;3282;48.358;10.958;2022-09-09T01:53:28;5.55;;;3.08;;
6497;SDS011;3282;48.358;10.958;2022-09-09T01:59:12;5.65;;;2.88;;
6497;SDS011;3282;48.358;10.958;2022-09-09T02:10:17;6.05;;;3.13;;
6497;SDS011;3282;48.358;10.958;2022-09-09T02:13:10;9.02;;;3.35;;
6497;SDS011;3282;48.358;10.958;2022-09-09T02:15:42;4.60;;;3.08;;
6497;SDS011;3282;48.358;10.958;2022-09-09T02:18:17;4.15;;;2.78;;
6497;SDS011;3282;48.358;10.958;2022-09-09T02:20:51;5.32;;;3.03;;
6497;SDS011;3282;48.358;10.958;2022-09-09T02:23:20;8.05;;;3.50;;
6497;SDS011;3282;48.358;10.958;2022-09-09T02:25:50;5.25;;;3.40;;
6497;SDS011;3282;48.358;10.958;2022-09-09T02:28:22;6.47;;;3.65;;
6497;SDS011;3282;48.358;10.958;2022-09-09T02:30:52;6.70;;;3.42;;
6497;SDS011;3282;48.358;10.958;2022-09-09T02:33:27;7.30;;;3.58;;
6497;SDS011;3282;48.358;10.958;2022-09-09T02:35:57;6.90;;;3.90;;
6497;SDS011;3282;48.358;10.958;2022-09-09T02:41:07;6.57;;;3.50;;
6497;SDS011;3282;48.358;10.958;2022-09-09T02:43:35;6.05;;;3.72;;
6497;SDS011;3282;48.358;10.958;2022-09-09T02:49:09;6.00;;;3.42;;
6497;SDS011;3282;48.358;10.958;2022-09-09T02:51:47;6.63;;;3.60;;
6497;SDS011;3282;48.358;10.958;2022-09-09T02:54:30;5.03;;;3.47;;
6497;SDS011;3282;48.358;10.958;2022-09-09T02:57:13;6.43;;;3.80;;
6497;SDS011;3282;48.358;10.958;2022-09-09T02:59:47;8.68;;;4.10;;
6497;SDS011;3282;48.358;10.958;2022-09-09T03:02:15;8.13;;;4.00;;
6497;SDS011;3282;48.358;10.958;2022-09-09T03:04:45;6.75;;;3.83;;
6497;SDS011;3282;48.358;10.958;2022-09-09T03:07:18;5.97;;;3.70;;
6497;SDS011;3282;48.358;10.958;2022-09-09T03:09:46;6.70;;;3.85;;
6497;SDS011;3282;48.358;10.958;2022-09-09T03:12:12;6.13;;;3.90;;
6497;SDS011;3282;48.358;10.958;2022-09-09T03:14:40;7.45;;;3.63;;
6497;SDS011;3282;48.358;10.958;2022-09-09T03:17:07;7.00;;;3.30;;
6497;SDS011;3282;48.358;10.958;2022-09-09T03:19:41;7.40;;;3.40;;
6497;SDS011;3282;48.358;10.958;2022-09-09T03:22:09;8.23;;;3.38;;
6497;SDS011;3282;48.358;10.958;2022-09-09T03:24:42;6.25;;;3.70;;
6497;SDS011;3282;48.358;10.958;2022-09-09T03:27:09;6.28;;;3.45;;
6497;SDS011;3282;48.358;10.958;2022-09-09T03:29:37;6.40;;;3.38;;
6497;SDS011;3282;48.358;10.958;2022-09-09T03:32:07;6.50;;;3.30;;
6497;SDS011;3282;48.358;10.958;2022-09-09T03:34:37;7.00;;;3.33;;
6497;SDS011;3282;48.358;10.958;2022-09-09T03:37:10;8.68;;;3.15;;
6497;SDS011;3282;48.358;10.958;2022-09-09T03:39:36;6.05;;;3.05;;
6497;SDS011;3282;48.358;10.958;2022-09-09T03:42:03;11.25;;;3.35;;
6497;SDS011;3282;48.358;10.958;2022-09-09T03:44:30;5.57;;;2.90;;
6497;SDS011;3282;48.358;10.958;2022-09-09T03:46:57;7.65;;;3.15;;
6497;SDS011;3282;48.358;10.958;2022-09-09T03:49:27;6.82;;;3.00;;
6497;SDS011;3282;48.358;10.958;2022-09-09T03:51:55;5.32;;;2.97;;
6497;SDS011;3282;48.358;10.958;2022-09-09T03:54:24;4.78;;;3.13;;
6497;SDS011;3282;48.358;10.958;2022-09-09T03:56:51;6.28;;;3.40;;
6497;SDS011;3282;48.358;10.958;2022-09-09T03:59:18;5.40;;;3.55;;
6497;SDS011;3282;48.358;10.958;2022-09-09T04:01:46;4.90;;;3.15;;
6497;SDS011;3282;48.358;10.958;2022-09-09T04:04:13;6.78;;;3.00;;
6497;SDS011;3282;48.358;10.958;2022-09-09T04:06:40;6.30;;;3.10;;
6497;SDS011;3282;48.358;10.958;2022-09-09T04:09:07;7.07;;;2.67;;
6497;SDS011;3282;48.358;10.958;2022-09-09T04:11:34;4.53;;;3.15;;
6497;SDS011;3282;48.358;10.958;2022-09-09T04:14:00;6.68;;;2.75;;
6497;SDS011;3282;48.358;10.958;2022-09-09T04:16:29;6.25;;;2.97;;
6497;SDS011;3282;48.358;10.958;2022-09-09T04:18:55;5.38;;;2.80;;
6497;SDS011;3282;48.358;10.958;2022-09-09T04:21:22;6.65;;;3.13;;
6497;SDS011;3282;48.358;10.958;2022-09-09T04:23:49;8.20;;;3.42;;
6497;SDS011;3282;48.358;10.958;2022-09-09T04:26:16;5.90;;;3.00;;
6497;SDS011;3282;48.358;10.958;2022-09-09T04:28:44;7.82;;;3.15;;
6497;SDS011;3282;48.358;10.958;2022-09-09T04:31:20;5.88;;;3.20;;
6497;SDS011;3282;48.358;10.958;2022-09-09T04:33:52;6.40;;;3.20;;
6497;SDS011;3282;48.358;10.958;2022-09-09T04:36:20;5.47;;;2.85;;
6497;SDS011;3282;48.358;10.958;2022-09-09T04:38:48;7.25;;;3.20;;
6497;SDS011;3282;48.358;10.958;2022-09-09T04:41:15;5.80;;;3.00;;
6497;SDS011;3282;48.358;10.958;2022-09-09T04:43:47;4.57;;;2.72;;
6497;SDS011;3282;48.358;10.958;2022-09-09T04:46:15;7.00;;;2.53;;
6497;SDS011;3282;48.358;10.958;2022-09-09T04:48:46;4.75;;;2.50;;
6497;SDS011;3282;48.358;10.958;2022-09-09T04:51:13;4.63;;;2.50;;
6497;SDS011;3282;48.358;10.958;2022-09-09T04:53:41;4.90;;;2.70;;
6497;SDS011;3282;48.358;10.958;2022-09-09T04:56:11;8.23;;;3.00;;
6497;SDS011;3282;48.358;10.958;2022-09-09T04:58:44;5.25;;;2.80;;
6497;SDS011;3282;48.358;10.958;2022-09-09T05:01:14;6.28;;;2.60;;
6497;SDS011;3282;48.358;10.958;2022-09-09T05:03:45;6.22;;;2.50;;
6497;SDS011;3282;48.358;10.958;2022-09-09T05:06:16;5.38;;;2.40;;
6497;SDS011;3282;48.358;10.958;2022-09-09T05:08:47;4.35;;;2.33;;
6497;SDS011;3282;48.358;10.958;2022-09-09T05:11:20;7.85;;;2.90;;
6497;SDS011;3282;48.358;10.958;2022-09-09T05:13:52;6.32;;;2.83;;
6497;SDS011;3282;48.358;10.958;2022-09-09T05:16:20;5.43;;;2.20;;
6497;SDS011;3282;48.358;10.958;2022-09-09T05:18:47;8.48;;;2.90;;
6497;SDS011;3282;48.358;10.958;2022-09-09T05:21:15;6.28;;;2.70;;
6497;SDS011;3282;48.358;10.958;2022-09-09T05:23:44;5.30;;;2.60;;
6497;SDS011;3282;48.358;10.958;2022-09-09T05:26:15;7.50;;;2.90;;
6497;SDS011;3282;48.358;10.958;2022-09-09T05:28:45;7.45;;;2.80;;
6497;SDS011;3282;48.358;10.958;2022-09-09T05:31:13;6.72;;;2.97;;
6497;SDS011;3282;48.358;10.958;2022-09-09T05:33:45;5.10;;;2.75;;
6497;SDS011;3282;48.358;10.958;2022-09-09T05:36:15;9.00;;;2.67;;
6497;SDS011;3282;48.358;10.958;2022-09-09T05:38:45;3.70;;;2.58;;
6497;SDS011;3282;48.358;10.958;2022-09-09T05:41:13;5.53;;;2.60;;
6497;SDS011;3282;48.358;10.958;2022-09-09T05:43:44;5.28;;;2.42;;
6497;SDS011;3282;48.358;10.958;2022-09-09T05:46:14;6.88;;;2.53;;
6497;SDS011;3282;48.358;10.958;2022-09-09T05:48:47;4.15;;;2.67;;
6497;SDS011;3282;48.358;10.958;2022-09-09T05:51:19;9.07;;;3.30;;
6497;SDS011;3282;48.358;10.958;2022-09-09T05:53:48;6.65;;;3.50;;
6497;SDS011;3282;48.358;10.958;2022-09-09T05:56:16;7.07;;;3.00;;
6497;SDS011;3282;48.358;10.958;2022-09-09T05:58:44;6.32;;;2.90;;
6497;SDS011;3282;48.358;10.958;2022-09-09T06:01:12;4.97;;;2.90;;
6497;SDS011;3282;48.358;10.958;2022-09-09T06:03:41;9.80;;;3.10;;
6497;SDS011;3282;48.358;10.958;2022-09-09T06:06:10;6.90;;;2.63;;
6497;SDS011;3282;48.358;10.958;2022-09-09T06:08:39;14.45;;;3.42;;
6497;SDS011;3282;48.358;10.958;2022-09-09T06:11:08;9.73;;;3.00;;
6497;SDS011;3282;48.358;10.958;2022-09-09T06:13:40;10.80;;;3.03;;
6497;SDS011;3282;48.358;10.958;2022-09-09T06:16:12;6.55;;;2.83;;
6497;SDS011;3282;48.358;10.958;2022-09-09T06:18:41;8.82;;;2.60;;
6497;SDS011;3282;48.358;10.958;2022-09-09T06:24:01;6.13;;;2.55;;
6497;SDS011;3282;48.358;10.958;2022-09-09T06:26:30;8.32;;;2.55;;
6497;SDS011;3282;48.358;10.958;2022-09-09T06:29:00;13.50;;;2.80;;
6497;SDS011;3282;48.358;10.958;2022-09-09T06:31:31;6.95;;;2.40;;
6497;SDS011;3282;48.358;10.958;2022-09-09T06:34:07;6.75;;;2.80;;
6497;SDS011;3282;48.358;10.958;2022-09-09T06:36:39;5.32;;;2.50;;
6497;SDS011;3282;48.358;10.958;2022-09-09T06:39:06;6.07;;;2.45;;
6497;SDS011;3282;48.358;10.958;2022-09-09T06:41:40;7.93;;;2.70;;
6497;SDS011;3282;48.358;10.958;2022-09-09T06:44:13;6.13;;;2.65;;
6497;SDS011;3282;48.358;10.958;2022-09-09T06:46:43;5.03;;;2.70;;
6497;SDS011;3282;48.358;10.958;2022-09-09T06:49:10;7.53;;;2.60;;
6497;SDS011;3282;48.358;10.958;2022-09-09T06:51:37;8.00;;;2.50;;
6497;SDS011;3282;48.358;10.958;2022-09-09T06:54:11;6.82;;;2.60;;
6497;SDS011;3282;48.358;10.958;2022-09-09T06:56:42;6.43;;;2.30;;
6497;SDS011;3282;48.358;10.958;2022-09-09T06:59:15;6.40;;;2.53;;
6497;SDS011;3282;48.358;10.958;2022-09-09T07:01:44;7.25;;;2.70;;
6497;SDS011;3282;48.358;10.958;2022-09-09T07:04:12;9.35;;;3.13;;
6497;SDS011;3282;48.358;10.958;2022-09-09T07:06:46;7.80;;;2.55;;
6497;SDS011;3282;48.358;10.958;2022-09-09T07:09:17;4.25;;;2.40;;
6497;SDS011;3282;48.358;10.958;2022-09-09T07:11:50;5.13;;;2.58;;
6497;SDS011;3282;48.358;10.958;2022-09-09T07:14:25;5.25;;;2.60;;
6497;SDS011;3282;48.358;10.958;2022-09-09T07:16:56;5.53;;;2.50;;
6497;SDS011;3282;48.358;10.958;2022-09-09T07:19:32;4.47;;;2.40;;
6497;SDS011;3282;48.358;10.958;2022-09-09T07:22:00;5.97;;;2.60;;
6497;SDS011;3282;48.358;10.958;2022-09-09T07:24:29;6.22;;;2.65;;
6497;SDS011;3282;48.358;10.958;2022-09-09T07:26:57;7.20;;;2.35;;
6497;SDS011;3282;48.358;10.958;2022-09-09T07:29:23;6.00;;;2.40;;
6497;SDS011;3282;48.358;10.958;2022-09-09T07:31:50;6.28;;;2.50;;
6497;SDS011;3282;48.358;10.958;2022-09-09T07:34:22;5.85;;;2.40;;
6497;SDS011;3282;48.358;10.958;2022-09-09T07:36:49;7.63;;;2.80;;
6497;SDS011;3282;48.358;10.958;2022-09-09T07:39:17;7.20;;;2.58;;
6497;SDS011;3282;48.358;10.958;2022-09-09T07:41:48;6.40;;;2.63;;
6497;SDS011;3282;48.358;10.958;2022-09-09T07:44:19;5.28;;;2.60;;
6497;SDS011;3282;48.358;10.958;2022-09-09T07:46:52;6.15;;;3.00;;
6497;SDS011;3282;48.358;10.958;2022-09-09T07:49:25;4.68;;;2.53;;
6497;SDS011;3282;48.358;10.958;2022-09-09T07:51:58;5.70;;;2.55;;
6497;SDS011;3282;48.358;10.958;2022-09-09T07:54:25;5.90;;;2.60;;
6497;SDS011;3282;48.358;10.958;2022-09-09T07:56:52;5.68;;;2.40;;
6497;SDS011;3282;48.358;10.958;2022-09-09T07:59:22;6.60;;;2.63;;
6497;SDS011;3282;48.358;10.958;2022-09-09T08:01:51;6.60;;;2.50;;
6497;SDS011;3282;48.358;10.958;2022-09-09T08:04:23;7.00;;;2.80;;
6497;SDS011;3282;48.358;10.958;2022-09-09T08:06:53;5.57;;;2.60;;
6497;SDS011;3282;48.358;10.958;2022-09-09T08:09:25;6.17;;;2.60;;
6497;SDS011;3282;48.358;10.958;2022-09-09T08:12:04;5.88;;;2.45;;
6497;SDS011;3282;48.358;10.958;2022-09-09T08:14:34;5.78;;;2.88;;
6497;SDS011;3282;48.358;10.958;2022-09-09T08:17:03;8.38;;;2.45;;
6497;SDS011;3282;48.358;10.958;2022-09-09T08:19:31;5.07;;;2.53;;
6497;SDS011;3282;48.358;10.958;2022-09-09T08:22:04;5.47;;;2.58;;
6497;SDS011;3282;48.358;10.958;2022-09-09T08:24:33;4.93;;;2.30;;
6497;SDS011;3282;48.358;10.958;2022-09-09T08:27:00;4.90;;;2.20;;
6497;SDS011;3282;48.358;10.958;2022-09-09T08:29:27;4.88;;;2.30;;
6497;SDS011;3282;48.358;10.958;2022-09-09T08:31:56;6.55;;;2.10;;
6497;SDS011;3282;48.358;10.958;2022-09-09T08:34:26;10.95;;;2.20;;
6497;SDS011;3282;48.358;10.958;2022-09-09T08:36:55;6.57;;;2.30;;
6497;SDS011;3282;48.358;10.958;2022-09-09T08:39:32;7.68;;;2.08;;
6497;SDS011;3282;48.358;10.958;2022-09-09T08:47:22;5.95;;;2.10;;
6497;SDS011;3282;48.358;10.958;2022-09-09T08:50:15;4.60;;;2.00;;
6497;SDS011;3282;48.358;10.958;2022-09-09T08:52:55;4.38;;;1.70;;
6497;SDS011;3282;48.358;10.958;2022-09-09T08:58:02;3.88;;;1.80;;
6497;SDS011;3282;48.358;10.958;2022-09-09T09:03:32;4.53;;;1.70;;
6497;SDS011;3282;48.358;10.958;2022-09-09T09:08:47;4.10;;;1.80;;
6497;SDS011;3282;48.358;10.958;2022-09-09T09:11:25;6.20;;;2.00;;
6497;SDS011;3282;48.358;10.958;2022-09-09T09:13:56;4.22;;;2.00;;
6497;SDS011;3282;48.358;10.958;2022-09-09T09:16:51;5.40;;;2.08;;
6497;SDS011;3282;48.358;10.958;2022-09-09T09:19:21;4.97;;;2.10;;
6497;SDS011;3282;48.358;10.958;2022-09-09T09:30:02;5.97;;;2.00;;
6497;SDS011;3282;48.358;10.958;2022-09-09T09:33:00;6.38;;;2.20;;
6497;SDS011;3282;48.358;10.958;2022-09-09T09:35:49;4.93;;;1.98;;
6497;SDS011;3282;48.358;10.958;2022-09-09T09:38:19;4.82;;;1.90;;
6497;SDS011;3282;48.358;10.958;2022-09-09T09:41:09;4.30;;;1.80;;
6497;SDS011;3282;48.358;10.958;2022-09-09T09:43:37;3.47;;;1.70;;
6497;SDS011;3282;48.358;10.958;2022-09-09T09:46:20;3.97;;;1.70;;
6497;SDS011;3282;48.358;10.958;2022-09-09T09:49:03;5.03;;;1.80;;
6497;SDS011;3282;48.358;10.958;2022-09-09T09:51:32;3.92;;;1.60;;
6497;SDS011;3282;48.358;10.958;2022-09-09T09:54:08;4.35;;;1.52;;
6497;SDS011;3282;48.358;10.958;2022-09-09T09:56:46;2.78;;;1.38;;
6497;SDS011;3282;48.358;10.958;2022-09-09T09:59:32;2.97;;;1.30;;
6497;SDS011;3282;48.358;10.958;2022-09-09T10:02:25;3.25;;;1.30;;
6497;SDS011;3282;48.358;10.958;2022-09-09T10:05:05;3.63;;;1.42;;
6497;SDS011;3282;48.358;10.958;2022-09-09T10:07:43;2.85;;;1.17;;
6497;SDS011;3282;48.358;10.958;2022-09-09T10:10:19;3.40;;;1.30;;
6497;SDS011;3282;48.358;10.958;2022-09-09T10:12:55;3.28;;;1.30;;
6497;SDS011;3282;48.358;10.958;2022-09-09T10:18:38;3.92;;;1.20;;
6497;SDS011;3282;48.358;10.958;2022-09-09T10:29:54;3.40;;;1.30;;
6497;SDS011;3282;48.358;10.958;2022-09-09T10:36:06;4.57;;;1.40;;
6497;SDS011;3282;48.358;10.958;2022-09-09T10:46:50;4.78;;;1.23;;
6497;SDS011;3282;48.358;10.958;2022-09-09T10:57:31;7.53;;;1.58;;
6497;SDS011;3282;48.358;10.958;2022-09-09T11:00:04;5.43;;;1.40;;
6497;SDS011;3282;48.358;10.958;2022-09-09T11:02:34;4.47;;;1.55;;
6497;SDS011;3282;48.358;10.958;2022-09-09T11:16:24;3.60;;;1.40;;
6497;SDS011;3282;48.358;10.958;2022-09-09T11:19:00;7.68;;;1.70;;
6497;SDS011;3282;48.358;10.958;2022-09-09T11:21:35;4.15;;;1.48;;
6497;SDS011;3282;48.358;10.958;2022-09-09T11:24:10;6.43;;;1.67;;
6497;SDS011;3282;48.358;10.958;2022-09-09T11:32:34;5.85;;;1.80;;
6497;SDS011;3282;48.358;10.958;2022-09-09T11:40:54;5.07;;;1.45;;
6497;SDS011;3282;48.358;10.958;2022-09-09T11:43:30;4.63;;;1.40;;
6497;SDS011;3282;48.358;10.958;2022-09-09T11:46:00;4.80;;;1.60;;
6497;SDS011;3282;48.358;10.958;2022-09-09T11:48:35;6.63;;;1.60;;
6497;SDS011;3282;48.358;10.958;2022-09-09T11:51:05;3.67;;;1.38;;
6497;SDS011;3282;48.358;10.958;2022-09-09T11:53:48;4.13;;;1.40;;
6497;SDS011;3282;48.358;10.958;2022-09-09T11:59:03;4.35;;;1.65;;
6497;SDS011;3282;48.358;10.958;2022-09-09T12:01:39;4.00;;;1.40;;
6497;SDS011;3282;48.358;10.958;2022-09-09T12:07:00;4.30;;;1.30;;
6497;SDS011;3282;48.358;10.958;2022-09-09T12:17:26;5.70;;;1.60;;
6497;SDS011;3282;48.358;10.958;2022-09-09T12:20:03;4.63;;;1.40;;
6497;SDS011;3282;48.358;10.958;2022-09-09T12:22:40;4.35;;;1.30;;
6497;SDS011;3282;48.358;10.958;2022-09-09T12:25:26;6.55;;;1.83;;
6497;SDS011;3282;48.358;10.958;2022-09-09T12:28:15;4.65;;;1.30;;
6497;SDS011;3282;48.358;10.958;2022-09-09T12:30:48;4.68;;;1.42;;
6497;SDS011;3282;48.358;10.958;2022-09-09T12:33:21;4.53;;;1.30;;
6497;SDS011;3282;48.358;10.958;2022-09-09T12:35:56;6.80;;;1.70;;
6497;SDS011;3282;48.358;10.958;2022-09-09T12:38:31;4.05;;;1.40;;
6497;SDS011;3282;48.358;10.958;2022-09-09T12:41:00;6.88;;;1.60;;
6497;SDS011;3282;48.358;10.958;2022-09-09T12:43:27;4.07;;;1.48;;
6497;SDS011;3282;48.358;10.958;2022-09-09T12:45:56;4.82;;;1.40;;
6497;SDS011;3282;48.358;10.958;2022-09-09T12:48:32;4.20;;;1.50;;
6497;SDS011;3282;48.358;10.958;2022-09-09T12:51:07;5.88;;;1.35;;
6497;SDS011;3282;48.358;10.958;2022-09-09T12:53:45;5.93;;;1.50;;
6497;SDS011;3282;48.358;10.958;2022-09-09T12:56:19;5.45;;;1.50;;
6497;SDS011;3282;48.358;10.958;2022-09-09T12:58:53;4.78;;;1.40;;
6497;SDS011;3282;48.358;10.958;2022-09-09T13:01:30;5.75;;;1.45;;
6497;SDS011;3282;48.358;10.958;2022-09-09T13:04:01;3.92;;;1.30;;
6497;SDS011;3282;48.358;10.958;2022-09-09T13:06:28;4.22;;;1.50;;
6497;SDS011;3282;48.358;10.958;2022-09-09T13:08:59;4.03;;;1.20;;
6497;SDS011;3282;48.358;10.958;2022-09-09T13:13:57;4.90;;;1.60;;
6497;SDS011;3282;48.358;10.958;2022-09-09T13:16:29;5.78;;;1.50;;
6497;SDS011;3282;48.358;10.958;2022-09-09T13:18:59;7.13;;;1.50;;
6497;SDS011;3282;48.358;10.958;2022-09-09T13:21:31;4.20;;;1.38;;
6497;SDS011;3282;48.358;10.958;2022-09-09T13:24:01;4.75;;;1.30;;
6497;SDS011;3282;48.358;10.958;2022-09-09T13:26:29;5.10;;;1.40;;
6497;SDS011;3282;48.358;10.958;2022-09-09T13:29:07;3.85;;;1.33;;
6497;SDS011;3282;48.358;10.958;2022-09-09T13:31:43;7.97;;;1.40;;
6497;SDS011;3282;48.358;10.958;2022-09-09T13:34:22;5.38;;;1.38;;
6497;SDS011;3282;48.358;10.958;2022-09-09T13:37:00;3.95;;;1.30;;
6497;SDS011;3282;48.358;10.958;2022-09-09T13:39:28;4.95;;;1.33;;
6497;SDS011;3282;48.358;10.958;2022-09-09T13:41:55;6.43;;;1.40;;
6497;SDS011;3282;48.358;10.958;2022-09-09T13:44:24;5.32;;;1.33;;
6497;SDS011;3282;48.358;10.958;2022-09-09T13:46:59;4.03;;;1.20;;
6497;SDS011;3282;48.358;10.958;2022-09-09T13:49:34;5.13;;;1.35;;
6497;SDS011;3282;48.358;10.958;2022-09-09T13:52:11;5.03;;;1.45;;
6497;SDS011;3282;48.358;10.958;2022-09-09T13:54:46;6.45;;;1.40;;
6497;SDS011;3282;48.358;10.958;2022-09-09T13:57:16;3.63;;;1.38;;
6497;SDS011;3282;48.358;10.958;2022-09-09T13:59:45;5.18;;;1.48;;
6497;SDS011;3282;48.358;10.958;2022-09-09T14:02:30;3.72;;;1.40;;
6497;SDS011;3282;48.358;10.958;2022-09-09T14:04:57;3.28;;;1.30;;
6497;SDS011;3282;48.358;10.958;2022-09-09T14:07:24;5.47;;;1.30;;
6497;SDS011;3282;48.358;10.958;2022-09-09T14:09:51;3.92;;;1.33;;
6497;SDS011;3282;48.358;10.958;2022-09-09T14:12:18;3.67;;;1.30;;
6497;SDS011;3282;48.358;10.958;2022-09-09T14:14:46;2.40;;;1.05;;
6497;SDS011;3282;48.358;10.958;2022-09-09T14:17:12;3.78;;;1.48;;
6497;SDS011;3282;48.358;10.958;2022-09-09T14:19:40;7.95;;;2.25;;
6497;SDS011;3282;48.358;10.958;2022-09-09T14:22:07;10.70;;;1.98;;
6497;SDS011;3282;48.358;10.958;2022-09-09T14:24:33;7.05;;;2.13;;
6497;SDS011;3282;48.358;10.958;2022-09-09T14:27:00;7.55;;;2.03;;
6497;SDS011;3282;48.358;10.958;2022-09-09T14:29:26;7.20;;;2.17;;
6497;SDS011;3282;48.358;10.958;2022-09-09T14:31:53;7.35;;;1.70;;
6497;SDS011;3282;48.358;10.958;2022-09-09T14:34:19;7.32;;;1.65;;
6497;SDS011;3282;48.358;10.958;2022-09-09T14:36:48;5.95;;;1.75;;
6497;SDS011;3282;48.358;10.958;2022-09-09T14:39:16;8.73;;;1.90;;
6497;SDS011;3282;48.358;10.958;2022-09-09T14:41:43;7.15;;;1.90;;
6497;SDS011;3282;48.358;10.958;2022-09-09T14:44:09;4.93;;;1.80;;
6497;SDS011;3282;48.358;10.958;2022-09-09T14:46:36;5.22;;;1.48;;
6497;SDS011;3282;48.358;10.958;2022-09-09T14:49:03;4.07;;;1.30;;
6497;SDS011;3282;48.358;10.958;2022-09-09T14:51:29;4.05;;;1.30;;
6497;SDS011;3282;48.358;10.958;2022-09-09T14:53:57;2.63;;;1.42;;
6497;SDS011;3282;48.358;10.958;2022-09-09T14:56:26;3.35;;;1.33;;
6497;SDS011;3282;48.358;10.958;2022-09-09T14:58:56;4.88;;;1.60;;
6497;SDS011;3282;48.358;10.958;2022-09-09T15:01:24;4.88;;;1.45;;
6497;SDS011;3282;48.358;10.958;2022-09-09T15:04:04;4.03;;;1.45;;
6497;SDS011;3282;48.358;10.958;2022-09-09T15:06:35;6.55;;;1.90;;
6497;SDS011;3282;48.358;10.958;2022-09-09T15:09:05;3.67;;;1.40;;
6497;SDS011;3282;48.358;10.958;2022-09-09T15:11:37;5.45;;;1.75;;
6497;SDS011;3282;48.358;10.958;2022-09-09T15:14:05;3.63;;;1.40;;
6497;SDS011;3282;48.358;10.958;2022-09-09T15:16:32;4.60;;;1.52;;
6497;SDS011;3282;48.358;10.958;2022-09-09T15:19:00;5.55;;;1.50;;
6497;SDS011;3282;48.358;10.958;2022-09-09T15:21:29;4.28;;;1.70;;
6497;SDS011;3282;48.358;10.958;2022-09-09T15:23:57;5.80;;;1.77;;
6497;SDS011;3282;48.358;10.958;2022-09-09T15:26:24;5.13;;;1.50;;
6497;SDS011;3282;48.358;10.958;2022-09-09T15:28:52;5.07;;;1.70;;
6497;SDS011;3282;48.358;10.958;2022-09-09T15:31:20;4.82;;;1.50;;
6497;SDS011;3282;48.358;10.958;2022-09-09T15:36:18;4.95;;;1.90;;
6497;SDS011;3282;48.358;10.958;2022-09-09T15:38:46;5.95;;;1.52;;
6497;SDS011;3282;48.358;10.958;2022-09-09T15:41:14;7.43;;;1.98;;
6497;SDS011;3282;48.358;10.958;2022-09-09T15:43:44;5.43;;;1.60;;
6497;SDS011;3282;48.358;10.958;2022-09-09T15:48:44;5.53;;;1.77;;
6497;SDS011;3282;48.358;10.958;2022-09-09T15:51:14;4.85;;;1.80;;
6497;SDS011;3282;48.358;10.958;2022-09-09T15:54:00;4.38;;;1.50;;
6497;SDS011;3282;48.358;10.958;2022-09-09T15:56:28;5.35;;;1.73;;
6497;SDS011;3282;48.358;10.958;2022-09-09T15:58:59;4.82;;;1.42;;
6497;SDS011;3282;48.358;10.958;2022-09-09T16:01:26;4.50;;;1.73;;
6497;SDS011;3282;48.358;10.958;2022-09-09T16:03:53;4.13;;;1.60;;
6497;SDS011;3282;48.358;10.958;2022-09-09T16:06:20;4.72;;;1.60;;
6497;SDS011;3282;48.358;10.958;2022-09-09T16:08:49;3.42;;;1.60;;
6497;SDS011;3282;48.358;10.958;2022-09-09T16:11:19;5.05;;;1.60;;
6497;SDS011;3282;48.358;10.958;2022-09-09T16:13:48;4.25;;;1.50;;
6497;SDS011;3282;48.358;10.958;2022-09-09T16:16:17;3.80;;;1.50;;
6497;SDS011;3282;48.358;10.958;2022-09-09T16:18:46;4.70;;;1.70;;
6497;SDS011;3282;48.358;10.958;2022-09-09T16:21:15;6.00;;;1.73;;
6497;SDS011;3282;48.358;10.958;2022-09-09T16:23:44;4.40;;;1.70;;
6497;SDS011;3282;48.358;10.958;2022-09-09T16:26:11;4.78;;;1.75;;
6497;SDS011;3282;48.358;10.958;2022-09-09T16:28:39;3.63;;;1.50;;
6497;SDS011;3282;48.358;10.958;2022-09-09T16:31:10;4.90;;;1.60;;
6497;SDS011;3282;48.358;10.958;2022-09-09T16:33:40;3.17;;;1.63;;
6497;SDS011;3282;48.358;10.958;2022-09-09T16:36:09;3.95;;;1.30;;
6497;SDS011;3282;48.358;10.958;2022-09-09T16:38:40;3.35;;;1.20;;
6497;SDS011;3282;48.358;10.958;2022-09-09T16:41:07;4.00;;;1.50;;
6497;SDS011;3282;48.358;10.958;2022-09-09T16:43:35;3.00;;;1.27;;
6497;SDS011;3282;48.358;10.958;2022-09-09T16:46:03;4.28;;;1.40;;
6497;SDS011;3282;48.358;10.958;2022-09-09T16:48:37;4.80;;;1.35;;
6497;SDS011;3282;48.358;10.958;2022-09-09T16:51:04;4.03;;;1.50;;
6497;SDS011;3282;48.358;10.958;2022-09-09T16:53:32;3.97;;;1.40;;
6497;SDS011;3282;48.358;10.958;2022-09-09T16:56:06;9.82;;;1.52;;
6497;SDS011;3282;48.358;10.958;2022-09-09T16:58:34;3.88;;;1.75;;
6497;SDS011;3282;48.358;10.958;2022-09-09T17:01:03;5.15;;;1.60;;
6497;SDS011;3282;48.358;10.958;2022-09-09T17:03:31;4.25;;;1.65;;
6497;SDS011;3282;48.358;10.958;2022-09-09T17:05:58;3.25;;;1.70;;
6497;SDS011;3282;48.358;10.958;2022-09-09T17:08:28;3.50;;;1.88;;
6497;SDS011;3282;48.358;10.958;2022-09-09T17:10:56;4.72;;;1.70;;
6497;SDS011;3282;48.358;10.958;2022-09-09T17:13:23;2.88;;;1.50;;
6497;SDS011;3282;48.358;10.958;2022-09-09T17:15:51;6.72;;;1.80;;
6497;SDS011;3282;48.358;10.958;2022-09-09T17:18:17;4.72;;;1.77;;
6497;SDS011;3282;48.358;10.958;2022-09-09T17:20:45;5.00;;;1.90;;
6497;SDS011;3282;48.358;10.958;2022-09-09T17:23:12;5.50;;;1.60;;
6497;SDS011;3282;48.358;10.958;2022-09-09T17:25:42;2.88;;;1.55;;
6497;SDS011;3282;48.358;10.958;2022-09-09T17:28:09;5.50;;;1.90;;
6497;SDS011;3282;48.358;10.958;2022-09-09T17:30:36;5.20;;;1.95;;
6497;SDS011;3282;48.358;10.958;2022-09-09T17:33:03;5.47;;;2.00;;
6497;SDS011;3282;48.358;10.958;2022-09-09T17:35:30;5.88;;;1.73;;
6497;SDS011;3282;48.358;10.958;2022-09-09T17:37:57;5.20;;;2.15;;
6497;SDS011;3282;48.358;10.958;2022-09-09T17:40:24;4.25;;;2.00;;
6497;SDS011;3282;48.358;10.958;2022-09-09T17:42:51;3.58;;;2.10;;
6497;SDS011;3282;48.358;10.958;2022-09-09T17:45:17;4.28;;;1.95;;
6497;SDS011;3282;48.358;10.958;2022-09-09T17:47:44;5.20;;;2.10;;
6497;SDS011;3282;48.358;10.958;2022-09-09T17:50:10;5.47;;;2.30;;
6497;SDS011;3282;48.358;10.958;2022-09-09T17:52:39;6.60;;;2.30;;
6497;SDS011;3282;48.358;10.958;2022-09-09T17:55:07;5.43;;;2.00;;
6497;SDS011;3282;48.358;10.958;2022-09-09T17:57:35;5.20;;;2.20;;
6497;SDS011;3282;48.358;10.958;2022-09-09T18:00:03;6.10;;;2.30;;
6497;SDS011;3282;48.358;10.958;2022-09-09T18:02:37;4.95;;;2.00;;
6497;SDS011;3282;48.358;10.958;2022-09-09T18:05:04;5.03;;;2.22;;